createdAt,value
2022-11-05T00:00:54.975Z,10.73
2022-11-05T00:03:41.202Z,10.65
2022-11-05T00:06:29.181Z,10.50
2022-11-05T00:09:34.943Z,11.18
2022-11-05T00:12:38.796Z,9.98
2022-11-05T00:15:25.213Z,11.02
2022-11-05T00:17:52.494Z,10.02
2022-11-05T00:20:19.621Z,11.20
2022-11-05T00:23:05.089Z,11.00
2022-11-05T00:25:32.571Z,9.95
2022-11-05T00:28:03.485Z,10.00
2022-11-05T00:30:31.001Z,9.48
2022-11-05T00:33:03.197Z,9.13
2022-11-05T00:35:30.521Z,9.65
2022-11-05T00:37:57.689Z,10.20
2022-11-05T00:40:24.815Z,10.68
2022-11-05T00:43:10.915Z,9.30
2022-11-05T00:45:38.268Z,8.32
2022-11-05T00:48:24.552Z,8.57
2022-11-05T00:50:52.049Z,8.48
2022-11-05T00:53:19.322Z,8.90
2022-11-05T00:55:47.347Z,8.68
2022-11-05T00:58:19.215Z,7.95
2022-11-05T01:01:00.896Z,8.63
2022-11-05T01:03:36.200Z,8.38
2022-11-05T01:06:17.614Z,7.68
2022-11-05T01:08:46.792Z,6.05
2022-11-05T01:11:35.273Z,6.55
2022-11-05T01:14:10.154Z,6.25
2022-11-05T01:16:39.240Z,5.72
2022-11-05T01:19:10.538Z,4.97
2022-11-05T01:21:38.478Z,4.80
2022-11-05T01:24:06.298Z,5.00
2022-11-05T01:26:33.470Z,4.15
2022-11-05T01:29:01.116Z,3.70
2022-11-05T01:31:29.131Z,3.38
2022-11-05T01:33:56.281Z,3.15
2022-11-05T01:36:23.399Z,3.83
2022-11-05T01:38:50.522Z,8.32
2022-11-05T01:41:18.090Z,4.63
2022-11-05T01:44:02.015Z,4.45
2022-11-05T01:46:41.263Z,5.78
2022-11-05T01:49:38.392Z,4.40
2022-11-05T01:52:08.287Z,4.50
2022-11-05T01:54:39.521Z,4.75
2022-11-05T01:57:12.039Z,4.70
2022-11-05T01:59:48.807Z,4.60
2022-11-05T02:02:18.217Z,4.60
2022-11-05T02:05:06.438Z,4.70
2022-11-05T02:07:34.787Z,4.53
2022-11-05T02:10:07.263Z,4.38
2022-11-05T02:12:39.088Z,3.75
2022-11-05T02:15:10.405Z,4.43
2022-11-05T02:18:09.068Z,4.85
2022-11-05T02:20:54.902Z,4.10
2022-11-05T02:24:09.130Z,3.83
2022-11-05T02:27:02.205Z,3.70
2022-11-05T02:30:06.668Z,4.20
2022-11-05T02:33:23.372Z,4.35
2022-11-05T02:36:27.623Z,3.35
2022-11-05T02:39:34.795Z,4.20
2022-11-05T02:42:54.184Z,3.75
2022-11-05T02:46:03.729Z,3.95
2022-11-05T02:49:01.547Z,3.90
2022-11-05T02:51:49.453Z,3.60
2022-11-05T02:54:35.713Z,3.78
2022-11-05T02:57:08.742Z,3.78
2022-11-05T02:59:36.519Z,3.40
2022-11-05T03:02:16.852Z,3.60
2022-11-05T03:04:44.566Z,3.17
2022-11-05T03:07:44.086Z,3.65
2022-11-05T03:10:51.812Z,3.22
2022-11-05T03:13:53.233Z,3.83
2022-11-05T03:16:51.151Z,3.55
2022-11-05T03:19:48.870Z,3.40
2022-11-05T03:22:42.241Z,3.45
2022-11-05T03:25:32.335Z,3.58
2022-11-05T03:28:30.949Z,3.58
2022-11-05T03:31:01.062Z,3.50
2022-11-05T03:33:53.373Z,3.30
2022-11-05T03:36:33.635Z,3.60
2022-11-05T03:39:13.752Z,3.45
2022-11-05T03:41:45.163Z,3.50
2022-11-05T03:44:16.854Z,3.38
2022-11-05T03:46:57.794Z,3.63
2022-11-05T03:50:21.723Z,4.05
2022-11-05T03:53:00.440Z,3.75
2022-11-05T03:55:44.763Z,4.00
2022-11-05T03:58:14.549Z,3.70
2022-11-05T04:00:42.311Z,3.72
2022-11-05T04:03:12.182Z,3.70
2022-11-05T04:05:40.784Z,3.65
2022-11-05T04:08:28.705Z,3.92
2022-11-05T04:11:16.920Z,3.13
2022-11-05T04:13:46.441Z,3.30
2022-11-05T04:16:33.332Z,3.60
2022-11-05T04:19:01.366Z,3.88
2022-11-05T04:21:47.667Z,3.85
2022-11-05T04:24:15.259Z,4.10
2022-11-05T04:26:47.500Z,3.70
2022-11-05T04:29:33.733Z,3.67
2022-11-05T04:32:31.980Z,3.55
2022-11-05T04:35:56.588Z,4.30
2022-11-05T04:38:20.204Z,4.07
2022-11-05T04:40:48.839Z,4.13
2022-11-05T04:43:20.022Z,4.05
2022-11-05T04:45:47.708Z,4.30
2022-11-05T04:48:14.982Z,3.80
2022-11-05T04:50:42.361Z,4.28
2022-11-05T04:54:09.232Z,4.45
2022-11-05T04:56:31.641Z,4.55
2022-11-05T04:59:02.589Z,4.90
2022-11-05T05:01:47.873Z,5.28
2022-11-05T05:04:22.501Z,4.53
2022-11-05T05:06:49.731Z,4.32
2022-11-05T05:09:17.100Z,4.00
2022-11-05T05:11:52.016Z,4.40
2022-11-05T05:14:23.852Z,3.63
2022-11-05T05:17:02.203Z,3.60
2022-11-05T05:19:29.816Z,3.50
2022-11-05T05:21:56.987Z,4.18
2022-11-05T05:24:25.003Z,3.70
2022-11-05T05:26:52.254Z,3.92
2022-11-05T05:29:19.564Z,4.05
2022-11-05T05:31:46.784Z,3.33
2022-11-05T05:34:15.284Z,3.38
2022-11-05T05:36:46.053Z,3.93
2022-11-05T05:39:14.249Z,3.13
2022-11-05T05:41:46.316Z,3.70
2022-11-05T05:44:17.583Z,3.33
2022-11-05T05:46:47.306Z,3.30
2022-11-05T05:49:14.886Z,3.20
2022-11-05T05:51:44.563Z,3.53
2022-11-05T05:54:14.854Z,3.40
2022-11-05T05:56:46.137Z,3.42
2022-11-05T05:59:13.589Z,3.10
2022-11-05T06:01:41.351Z,3.05
2022-11-05T06:04:13.545Z,3.80
2022-11-05T06:07:11.305Z,3.60
2022-11-05T06:09:41.073Z,3.85
2022-11-05T06:12:08.612Z,3.78
2022-11-05T06:14:36.095Z,3.30
2022-11-05T06:17:04.009Z,3.17
2022-11-05T06:19:31.651Z,4.63
2022-11-05T06:21:59.371Z,4.30
2022-11-05T06:24:29.167Z,4.88
2022-11-05T06:26:56.412Z,5.05
2022-11-05T06:29:24.255Z,5.97
2022-11-05T06:31:52.018Z,6.15
2022-11-05T06:34:19.432Z,6.18
2022-11-05T06:36:49.210Z,8.13
2022-11-05T06:39:17.167Z,9.48
2022-11-05T06:42:11.845Z,10.15
2022-11-05T06:44:32.272Z,13.07
2022-11-05T06:47:00.329Z,9.98
2022-11-05T06:49:27.514Z,10.48
2022-11-05T06:51:54.796Z,10.45
2022-11-05T06:54:22.631Z,12.35
2022-11-05T06:56:50.096Z,14.63
2022-11-05T06:59:17.844Z,14.27
2022-11-05T07:01:45.228Z,14.23
2022-11-05T07:04:13.064Z,16.02
2022-11-05T07:06:40.455Z,15.95
2022-11-05T07:09:07.776Z,17.85
2022-11-05T07:11:34.943Z,16.92
2022-11-05T07:14:02.543Z,17.20
2022-11-05T07:16:34.595Z,21.02
2022-11-05T07:19:03.594Z,21.27
2022-11-05T07:21:31.165Z,23.45
2022-11-05T07:23:59.065Z,24.52
2022-11-05T07:26:31.843Z,26.77
2022-11-05T07:29:02.200Z,28.02
2022-11-05T07:31:30.060Z,30.60
2022-11-05T07:34:09.421Z,32.08
2022-11-05T07:36:39.528Z,30.02
2022-11-05T07:42:29.251Z,28.80
2022-11-05T07:44:56.623Z,28.65
2022-11-05T07:47:27.896Z,29.67
2022-11-05T07:49:55.144Z,28.02
2022-11-05T07:52:22.322Z,32.20
2022-11-05T07:54:49.983Z,32.53
2022-11-05T07:57:17.501Z,28.40
2022-11-05T07:59:44.630Z,27.58
2022-11-05T08:02:11.962Z,27.00
2022-11-05T08:04:40.340Z,27.00
2022-11-05T08:07:07.560Z,26.58
2022-11-05T08:09:34.937Z,24.10
2022-11-05T08:12:03.379Z,24.85
2022-11-05T08:14:31.034Z,24.48
2022-11-05T08:16:59.129Z,23.50
2022-11-05T08:19:26.869Z,23.85
2022-11-05T08:21:54.521Z,24.55
2022-11-05T08:24:22.012Z,26.73
2022-11-05T08:26:49.262Z,24.67
2022-11-05T08:29:17.029Z,24.90
2022-11-05T08:31:44.669Z,25.15
2022-11-05T08:34:11.975Z,30.10
2022-11-05T08:36:41.960Z,28.58
2022-11-05T08:39:14.283Z,28.58
2022-11-05T08:41:45.579Z,26.17
2022-11-05T08:44:13.210Z,27.33
2022-11-05T08:46:41.841Z,24.98
2022-11-05T08:49:09.408Z,20.77
2022-11-05T08:51:36.759Z,19.05
2022-11-05T08:54:05.051Z,19.42
2022-11-05T08:56:32.646Z,17.88
2022-11-05T08:59:00.939Z,15.52
2022-11-05T09:01:28.432Z,12.65
2022-11-05T09:03:55.833Z,13.68
2022-11-05T09:06:23.274Z,11.60
2022-11-05T09:08:50.949Z,10.50
2022-11-05T09:11:18.493Z,9.48
2022-11-05T09:13:46.155Z,9.88
2022-11-05T09:16:24.207Z,10.15
2022-11-05T09:18:52.438Z,9.48
2022-11-05T09:21:20.248Z,9.30
2022-11-05T09:23:48.646Z,7.82
2022-11-05T09:26:15.882Z,7.88
2022-11-05T09:28:43.557Z,8.48
2022-11-05T09:31:12.029Z,9.00
2022-11-05T09:33:41.628Z,9.05
2022-11-05T09:36:09.617Z,9.60
2022-11-05T09:38:37.182Z,8.57
2022-11-05T09:41:37.475Z,9.10
2022-11-05T09:44:20.758Z,9.07
2022-11-05T09:46:54.896Z,8.85
2022-11-05T09:49:50.308Z,8.82
2022-11-05T09:52:29.985Z,8.77
2022-11-05T09:54:58.398Z,9.43
2022-11-05T09:57:37.249Z,10.18
2022-11-05T10:00:09.617Z,10.45
2022-11-05T10:02:57.575Z,11.40
2022-11-05T10:05:27.304Z,11.32
2022-11-05T10:08:16.957Z,12.10
2022-11-05T10:10:54.405Z,12.00
2022-11-05T10:13:41.193Z,12.40
2022-11-05T10:16:37.978Z,12.48
2022-11-05T10:19:27.193Z,13.07
2022-11-05T10:22:16.612Z,13.05
2022-11-05T10:24:50.166Z,13.90
2022-11-05T10:27:27.229Z,14.52
2022-11-05T10:29:55.672Z,14.88
2022-11-05T10:32:35.064Z,14.43
2022-11-05T10:35:08.220Z,14.98
2022-11-05T10:37:40.851Z,16.05
2022-11-05T10:40:34.425Z,16.05
2022-11-05T10:43:14.266Z,15.82
2022-11-05T10:46:08.903Z,15.85
2022-11-05T10:48:56.900Z,16.58
2022-11-05T10:51:24.581Z,16.50
2022-11-05T10:54:02.267Z,16.10
2022-11-05T10:56:39.521Z,15.82
2022-11-05T10:59:29.809Z,15.23
2022-11-05T11:02:25.907Z,14.80
2022-11-05T11:04:57.941Z,15.52
2022-11-05T11:07:27.187Z,14.60
2022-11-05T11:09:54.628Z,13.20
2022-11-05T11:12:41.010Z,13.75
2022-11-05T11:15:24.024Z,14.30
2022-11-05T11:17:51.430Z,13.98
2022-11-05T11:20:33.250Z,12.40
2022-11-05T11:23:16.985Z,11.30
2022-11-05T11:26:01.789Z,11.77
2022-11-05T11:28:56.445Z,10.90
2022-11-05T11:31:32.576Z,10.73
2022-11-05T11:34:09.301Z,10.57
2022-11-05T11:36:50.785Z,11.07
2022-11-05T11:39:28.924Z,11.07
2022-11-05T11:42:14.214Z,9.90
2022-11-05T11:44:47.038Z,9.65
2022-11-05T11:47:19.869Z,8.20
2022-11-05T11:49:54.893Z,7.78
2022-11-05T11:52:34.616Z,7.45
2022-11-05T11:55:22.570Z,6.18
2022-11-05T11:58:06.105Z,6.03
2022-11-05T12:00:48.749Z,6.25
2022-11-05T12:03:54.242Z,6.57
2022-11-05T12:06:30.354Z,6.20
2022-11-05T12:09:57.063Z,6.18
2022-11-05T12:13:02.517Z,6.18
2022-11-05T12:16:18.228Z,6.88
2022-11-05T12:18:53.897Z,6.22
2022-11-05T12:21:52.073Z,6.38
2022-11-05T12:25:02.374Z,6.57
2022-11-05T12:28:17.806Z,5.90
2022-11-05T12:31:11.104Z,6.07
2022-11-05T12:34:30.656Z,6.45
2022-11-05T12:37:52.065Z,6.53
2022-11-05T12:40:44.403Z,6.05
2022-11-05T12:43:42.496Z,5.50
2022-11-05T12:46:41.256Z,5.30
2022-11-05T12:50:01.082Z,5.53
2022-11-05T12:53:00.640Z,5.90
2022-11-05T12:55:45.474Z,5.80
2022-11-05T12:58:30.709Z,5.57
2022-11-05T13:01:23.471Z,4.68
2022-11-05T13:04:14.217Z,4.65
2022-11-05T13:06:50.091Z,4.85
2022-11-05T13:09:36.736Z,5.50
2022-11-05T13:12:17.311Z,5.38
2022-11-05T13:14:55.135Z,5.40
2022-11-05T13:17:38.861Z,5.10
2022-11-05T13:20:22.185Z,5.35
2022-11-05T13:23:01.159Z,5.82
2022-11-05T13:25:35.964Z,5.57
2022-11-05T13:28:34.494Z,5.93
2022-11-05T13:31:11.237Z,5.38
2022-11-05T13:33:47.479Z,5.18
2022-11-05T13:36:44.753Z,5.47
2022-11-05T13:39:29.269Z,5.75
2022-11-05T13:42:24.019Z,6.00
2022-11-05T13:45:32.000Z,6.13
2022-11-05T13:48:28.077Z,6.35
2022-11-05T13:51:39.669Z,6.20
2022-11-05T13:54:43.887Z,6.20
2022-11-05T13:57:54.733Z,6.32
2022-11-05T14:00:27.233Z,6.50
2022-11-05T14:03:07.439Z,5.80
2022-11-05T14:05:41.065Z,5.80
2022-11-05T14:08:20.611Z,6.60
2022-11-05T14:11:07.634Z,6.40
2022-11-05T14:13:42.784Z,6.22
2022-11-05T14:16:23.320Z,6.57
2022-11-05T14:19:18.754Z,6.22
2022-11-05T14:21:59.745Z,5.75
2022-11-05T14:24:43.011Z,4.80
2022-11-05T14:27:12.941Z,5.22
2022-11-05T14:29:47.884Z,4.55
2022-11-05T14:32:18.612Z,5.35
2022-11-05T14:35:01.800Z,5.40
2022-11-05T14:37:40.840Z,5.20
2022-11-05T14:40:39.127Z,5.35
2022-11-05T14:43:22.281Z,5.28
2022-11-05T14:46:08.351Z,5.40
2022-11-05T14:48:50.622Z,4.85
2022-11-05T14:51:28.555Z,5.32
2022-11-05T14:54:21.714Z,5.50
2022-11-05T14:56:57.998Z,5.47
2022-11-05T14:59:25.095Z,5.53
2022-11-05T15:02:18.290Z,4.97
2022-11-05T15:04:47.351Z,4.72
2022-11-05T15:07:24.463Z,5.13
2022-11-05T15:10:18.436Z,4.97
2022-11-05T15:12:54.800Z,5.40
2022-11-05T15:15:28.529Z,5.63
2022-11-05T15:18:29.416Z,5.35
2022-11-05T15:21:02.612Z,5.68
2022-11-05T15:23:43.109Z,5.32
2022-11-05T15:26:39.548Z,5.93
2022-11-05T15:29:21.626Z,5.78
2022-11-05T15:31:51.222Z,5.18
2022-11-05T15:34:35.760Z,5.32
2022-11-05T15:37:22.767Z,5.65
2022-11-05T15:39:54.970Z,5.22
2022-11-05T15:42:27.396Z,5.78
2022-11-05T15:44:58.910Z,5.88
2022-11-05T15:47:36.898Z,5.57
2022-11-05T15:50:15.579Z,5.97
2022-11-05T15:52:56.709Z,7.13
2022-11-05T15:55:32.944Z,9.30
2022-11-05T15:58:06.837Z,9.65
2022-11-05T16:00:37.056Z,8.35
2022-11-05T16:03:24.542Z,7.55
2022-11-05T16:05:53.446Z,6.95
2022-11-05T16:08:28.092Z,7.68
2022-11-05T16:10:59.879Z,7.43
2022-11-05T16:13:40.134Z,7.43
2022-11-05T16:16:13.791Z,14.73
2022-11-05T16:18:45.485Z,9.98
2022-11-05T16:21:18.786Z,8.90
2022-11-05T16:24:00.461Z,7.63
2022-11-05T16:29:41.354Z,7.45
2022-11-05T16:32:31.828Z,9.75
2022-11-05T16:35:04.826Z,12.98
2022-11-05T16:37:41.125Z,11.25
2022-11-05T16:40:25.885Z,12.10
2022-11-05T16:42:55.117Z,16.60
2022-11-05T16:45:25.177Z,12.88
2022-11-05T16:47:52.587Z,11.88
2022-11-05T16:50:32.663Z,10.52
2022-11-05T16:52:59.989Z,8.47
2022-11-05T16:55:27.400Z,8.38
2022-11-05T16:57:56.084Z,7.38
2022-11-05T17:00:25.728Z,12.52
2022-11-05T17:03:04.402Z,8.80
2022-11-05T17:05:43.052Z,8.57
2022-11-05T17:08:12.573Z,7.78
2022-11-05T17:10:40.853Z,10.55
2022-11-05T17:13:20.207Z,10.40
2022-11-05T17:15:53.415Z,10.35
2022-11-05T17:18:49.415Z,9.88
2022-11-05T17:21:28.425Z,11.25
2022-11-05T17:23:57.256Z,9.38
2022-11-05T17:26:30.987Z,9.00
2022-11-05T17:29:03.754Z,8.73
2022-11-05T17:31:59.550Z,9.43
2022-11-05T17:35:07.211Z,9.45
2022-11-05T17:38:24.110Z,8.90
2022-11-05T17:44:22.772Z,14.38
2022-11-05T17:47:58.333Z,13.32
2022-11-05T17:50:31.358Z,9.18
2022-11-05T17:53:56.417Z,9.02
2022-11-05T17:56:51.288Z,8.80
2022-11-05T18:07:22.683Z,10.40
2022-11-05T18:09:59.371Z,11.57
2022-11-05T18:12:36.301Z,15.88
2022-11-05T18:15:40.352Z,10.98
2022-11-05T18:18:24.296Z,9.85
2022-11-05T18:24:09.678Z,8.95
2022-11-05T18:27:06.995Z,12.98
2022-11-05T18:29:47.797Z,13.50
2022-11-05T18:32:40.525Z,13.00
2022-11-05T18:35:52.645Z,12.73
2022-11-05T18:38:22.904Z,14.43
2022-11-05T18:40:53.702Z,12.63
2022-11-05T18:43:22.016Z,14.23
2022-11-05T18:45:58.956Z,12.82
2022-11-05T18:48:27.852Z,12.25
2022-11-05T18:51:19.302Z,12.32
2022-11-05T18:53:49.471Z,13.00
2022-11-05T18:56:25.039Z,13.68
2022-11-05T18:59:29.903Z,15.57
2022-11-05T19:01:57.605Z,13.32
2022-11-05T19:05:14.466Z,14.18
2022-11-05T19:07:49.219Z,19.60
2022-11-05T19:10:17.695Z,14.32
2022-11-05T19:12:49.504Z,15.75
2022-11-05T19:15:18.862Z,13.32
2022-11-05T19:17:47.162Z,12.43
2022-11-05T19:20:16.078Z,13.05
2022-11-05T19:22:46.967Z,12.68
2022-11-05T19:25:33.213Z,11.80
2022-11-05T19:28:05.018Z,11.57
2022-11-05T19:30:40.287Z,12.15
2022-11-05T19:33:10.957Z,12.00
2022-11-05T19:35:54.956Z,11.88
2022-11-05T19:38:28.802Z,12.82
2022-11-05T19:41:07.073Z,12.57
2022-11-05T19:44:02.078Z,13.80
2022-11-05T19:46:40.209Z,14.30
2022-11-05T19:49:21.155Z,14.13
2022-11-05T19:52:01.249Z,14.20
2022-11-05T19:54:34.361Z,14.68
2022-11-05T19:57:03.218Z,14.95
2022-11-05T19:59:35.767Z,14.40
2022-11-05T20:02:13.303Z,13.82
2022-11-05T20:04:50.422Z,14.18
2022-11-05T20:07:21.579Z,13.85
2022-11-05T20:09:50.299Z,14.93
2022-11-05T20:12:22.153Z,14.60
2022-11-05T20:14:50.528Z,16.73
2022-11-05T20:17:23.819Z,16.30
2022-11-05T20:19:52.296Z,16.20
2022-11-05T20:22:21.095Z,15.52
2022-11-05T20:24:49.407Z,15.45
2022-11-05T20:27:17.868Z,16.17
2022-11-05T20:29:51.108Z,15.23
2022-11-05T20:32:19.773Z,16.30
2022-11-05T20:34:59.892Z,15.77
2022-11-05T20:37:36.715Z,15.68
2022-11-05T20:40:10.109Z,15.25
2022-11-05T20:42:39.069Z,16.67
2022-11-05T20:45:17.264Z,16.17
2022-11-05T20:47:57.704Z,15.85
2022-11-05T20:50:30.443Z,16.15
2022-11-05T20:53:02.043Z,17.42
2022-11-05T20:55:29.981Z,16.60
2022-11-05T20:57:57.868Z,17.80
2022-11-05T21:02:12.883Z,18.08
2022-11-05T21:03:53.938Z,19.30
2022-11-05T21:06:23.433Z,18.45
2022-11-05T21:08:58.176Z,17.70
2022-11-05T21:11:28.011Z,20.13
2022-11-05T21:14:33.321Z,20.50
2022-11-05T21:17:52.227Z,20.73
2022-11-05T21:20:49.180Z,18.77
2022-11-05T21:23:50.535Z,20.33
2022-11-05T21:27:02.643Z,21.90
2022-11-05T21:29:53.954Z,22.25
2022-11-05T21:33:10.570Z,22.67
2022-11-05T21:36:19.534Z,21.48
2022-11-05T21:39:14.504Z,20.38
2022-11-05T21:42:25.474Z,19.45
2022-11-05T21:45:18.825Z,19.60
2022-11-05T21:47:46.573Z,20.48
2022-11-05T21:50:18.271Z,20.25
2022-11-05T21:53:20.834Z,18.25
2022-11-05T21:56:07.207Z,17.58
2022-11-05T21:58:56.247Z,19.15
2022-11-05T22:01:23.580Z,19.83
2022-11-05T22:03:50.899Z,17.83
2022-11-05T22:06:20.784Z,19.42
2022-11-05T22:08:47.929Z,18.92
2022-11-05T22:11:15.217Z,17.65
2022-11-05T22:13:42.486Z,16.17
2022-11-05T22:16:35.675Z,16.88
2022-11-05T22:19:03.588Z,18.05
2022-11-05T22:21:30.777Z,17.88
2022-11-05T22:23:58.048Z,17.90
2022-11-05T22:26:25.383Z,20.48
2022-11-05T22:28:56.470Z,17.63
2022-11-05T22:31:24.729Z,18.77
2022-11-05T22:33:53.232Z,21.02
2022-11-05T22:36:20.591Z,18.55
2022-11-05T22:38:47.825Z,18.08
2022-11-05T22:41:20.432Z,17.85
2022-11-05T22:43:48.910Z,18.77
2022-11-05T22:46:26.338Z,18.73
2022-11-05T22:48:54.514Z,18.15
2022-11-05T22:51:28.465Z,19.63
2022-11-05T22:53:56.739Z,19.38
2022-11-05T22:56:28.751Z,20.48
2022-11-05T22:58:56.683Z,19.98
2022-11-05T23:01:25.004Z,21.17
2022-11-05T23:03:56.956Z,22.35
2022-11-05T23:06:51.187Z,21.60
2022-11-05T23:09:45.683Z,23.20
2022-11-05T23:12:29.112Z,23.15
2022-11-05T23:14:59.962Z,19.88
2022-11-05T23:17:49.010Z,21.25
2022-11-05T23:20:42.226Z,21.48
2022-11-05T23:23:31.615Z,20.55
2022-11-05T23:26:24.787Z,20.52
2022-11-05T23:28:51.998Z,22.58
2022-11-05T23:31:38.024Z,20.45
2022-11-05T23:34:05.153Z,20.35
2022-11-05T23:36:51.191Z,23.10
2022-11-05T23:39:18.442Z,25.27
2022-11-05T23:42:04.539Z,21.63
2022-11-05T23:44:50.581Z,21.02
2022-11-05T23:47:36.535Z,21.05
2022-11-05T23:50:04.266Z,23.00
2022-11-05T23:52:31.992Z,19.98
2022-11-05T23:54:59.911Z,19.60
2022-11-05T23:57:27.423Z,19.38
2022-11-05T23:59:54.684Z,19.38
